sensor_id;sensor_type;location;lat;lon;timestamp;temperature;humidity
16114;DHT22;8161;-33.910;151.156;2023-05-07T00:02:26;13.50;99.90
16114;DHT22;8161;-33.910;151.156;2023-05-07T00:04:53;13.90;99.90
16114;DHT22;8161;-33.910;151.156;2023-05-07T00:07:21;13.50;99.90
16114;DHT22;8161;-33.910;151.156;2023-05-07T00:09:49;13.20;99.90
16114;DHT22;8161;-33.910;151.156;2023-05-07T00:12:16;13.20;99.90
16114;DHT22;8161;-33.910;151.156;2023-05-07T00:14:43;13.40;99.90
16114;DHT22;8161;-33.910;151.156;2023-05-07T00:17:12;13.40;99.90
16114;DHT22;8161;-33.910;151.156;2023-05-07T00:19:39;13.30;99.90
16114;DHT22;8161;-33.910;151.156;2023-05-07T00:22:09;13.60;99.90
16114;DHT22;8161;-33.910;151.156;2023-05-07T00:24:36;13.50;99.90
16114;DHT22;8161;-33.910;151.156;2023-05-07T00:27:03;13.70;99.90
16114;DHT22;8161;-33.910;151.156;2023-05-07T00:31:58;13.20;99.90
16114;DHT22;8161;-33.910;151.156;2023-05-07T00:34:25;13.20;99.90
16114;DHT22;8161;-33.910;151.156;2023-05-07T00:36:55;13.30;99.90
16114;DHT22;8161;-33.910;151.156;2023-05-07T00:39:23;13.10;99.90
16114;DHT22;8161;-33.910;151.156;2023-05-07T00:41:50;13.30;99.90
16114;DHT22;8161;-33.910;151.156;2023-05-07T00:44:17;13.00;99.90
16114;DHT22;8161;-33.910;151.156;2023-05-07T00:46:45;13.50;99.90
16114;DHT22;8161;-33.910;151.156;2023-05-07T00:49:15;13.80;99.90
16114;DHT22;8161;-33.910;151.156;2023-05-07T00:51:43;13.60;99.90
16114;DHT22;8161;-33.910;151.156;2023-05-07T00:54:11;13.90;99.90
16114;DHT22;8161;-33.910;151.156;2023-05-07T00:56:39;13.90;99.90
16114;DHT22;8161;-33.910;151.156;2023-05-07T01:04:04;13.50;99.90
16114;DHT22;8161;-33.910;151.156;2023-05-07T01:06:32;13.90;99.90
16114;DHT22;8161;-33.910;151.156;2023-05-07T01:09:00;13.50;99.90
16114;DHT22;8161;-33.910;151.156;2023-05-07T01:11:28;14.30;99.90
16114;DHT22;8161;-33.910;151.156;2023-05-07T01:13:56;14.10;99.90
16114;DHT22;8161;-33.910;151.156;2023-05-07T01:16:26;14.30;99.90
16114;DHT22;8161;-33.910;151.156;2023-05-07T01:18:53;14.40;99.90
16114;DHT22;8161;-33.910;151.156;2023-05-07T01:21:25;14.30;99.90
16114;DHT22;8161;-33.910;151.156;2023-05-07T01:23:54;14.20;99.90
16114;DHT22;8161;-33.910;151.156;2023-05-07T01:26:22;14.00;99.90
16114;DHT22;8161;-33.910;151.156;2023-05-07T01:28:50;13.80;99.90
16114;DHT22;8161;-33.910;151.156;2023-05-07T01:33:45;14.10;99.90
16114;DHT22;8161;-33.910;151.156;2023-05-07T01:36:15;13.80;99.90
16114;DHT22;8161;-33.910;151.156;2023-05-07T01:38:44;14.10;99.90
16114;DHT22;8161;-33.910;151.156;2023-05-07T01:41:12;14.30;99.90
16114;DHT22;8161;-33.910;151.156;2023-05-07T01:43:40;13.80;99.90
16114;DHT22;8161;-33.910;151.156;2023-05-07T01:46:09;13.70;99.90
16114;DHT22;8161;-33.910;151.156;2023-05-07T01:48:38;13.90;99.90
16114;DHT22;8161;-33.910;151.156;2023-05-07T01:51:06;14.40;99.90
16114;DHT22;8161;-33.910;151.156;2023-05-07T01:53:39;14.60;99.90
16114;DHT22;8161;-33.910;151.156;2023-05-07T01:56:07;14.70;99.90
16114;DHT22;8161;-33.910;151.156;2023-05-07T01:58:37;14.90;99.90
16114;DHT22;8161;-33.910;151.156;2023-05-07T02:01:05;15.50;99.90
16114;DHT22;8161;-33.910;151.156;2023-05-07T02:03:32;15.00;99.90
16114;DHT22;8161;-33.910;151.156;2023-05-07T02:05:59;15.00;99.90
16114;DHT22;8161;-33.910;151.156;2023-05-07T02:08:27;14.60;99.90
16114;DHT22;8161;-33.910;151.156;2023-05-07T02:10:54;15.20;99.90
16114;DHT22;8161;-33.910;151.156;2023-05-07T02:15:49;15.80;99.90
16114;DHT22;8161;-33.910;151.156;2023-05-07T02:18:17;16.00;99.90
16114;DHT22;8161;-33.910;151.156;2023-05-07T02:20:44;16.40;99.90
16114;DHT22;8161;-33.910;151.156;2023-05-07T02:23:11;16.60;99.90
16114;DHT22;8161;-33.910;151.156;2023-05-07T02:25:41;15.90;99.90
16114;DHT22;8161;-33.910;151.156;2023-05-07T02:28:09;16.70;99.90
16114;DHT22;8161;-33.910;151.156;2023-05-07T02:30:37;16.90;99.90
16114;DHT22;8161;-33.910;151.156;2023-05-07T02:33:05;16.90;99.90
16114;DHT22;8161;-33.910;151.156;2023-05-07T02:38:01;17.10;99.90
16114;DHT22;8161;-33.910;151.156;2023-05-07T02:40:29;16.90;99.90
16114;DHT22;8161;-33.910;151.156;2023-05-07T02:43:00;17.30;99.90
16114;DHT22;8161;-33.910;151.156;2023-05-07T02:45:27;17.20;99.90
16114;DHT22;8161;-33.910;151.156;2023-05-07T02:47:54;17.20;99.90
16114;DHT22;8161;-33.910;151.156;2023-05-07T02:50:21;17.20;99.90
16114;DHT22;8161;-33.910;151.156;2023-05-07T02:52:49;17.10;99.90
16114;DHT22;8161;-33.910;151.156;2023-05-07T02:55:16;16.80;99.90
16114;DHT22;8161;-33.910;151.156;2023-05-07T02:57:43;16.30;99.90
16114;DHT22;8161;-33.910;151.156;2023-05-07T03:00:13;16.50;99.90
16114;DHT22;8161;-33.910;151.156;2023-05-07T03:02:40;16.50;99.90
16114;DHT22;8161;-33.910;151.156;2023-05-07T03:05:07;15.70;99.90
16114;DHT22;8161;-33.910;151.156;2023-05-07T03:07:36;16.10;99.90
16114;DHT22;8161;-33.910;151.156;2023-05-07T03:10:04;15.80;99.90
16114;DHT22;8161;-33.910;151.156;2023-05-07T03:12:31;15.40;99.90
16114;DHT22;8161;-33.910;151.156;2023-05-07T03:14:59;14.70;99.90
16114;DHT22;8161;-33.910;151.156;2023-05-07T03:17:26;15.00;99.90
16114;DHT22;8161;-33.910;151.156;2023-05-07T03:19:53;14.50;99.90
16114;DHT22;8161;-33.910;151.156;2023-05-07T03:22:21;14.30;99.90
16114;DHT22;8161;-33.910;151.156;2023-05-07T03:24:48;14.10;99.90
16114;DHT22;8161;-33.910;151.156;2023-05-07T03:27:15;14.30;99.90
16114;DHT22;8161;-33.910;151.156;2023-05-07T03:29:43;14.50;99.90
16114;DHT22;8161;-33.910;151.156;2023-05-07T03:32:10;14.90;99.90
16114;DHT22;8161;-33.910;151.156;2023-05-07T03:34:37;15.40;99.90
16114;DHT22;8161;-33.910;151.156;2023-05-07T03:37:04;16.00;99.90
16114;DHT22;8161;-33.910;151.156;2023-05-07T03:39:32;16.10;99.90
16114;DHT22;8161;-33.910;151.156;2023-05-07T03:42:04;16.70;99.90
16114;DHT22;8161;-33.910;151.156;2023-05-07T03:44:32;16.30;99.90
16114;DHT22;8161;-33.910;151.156;2023-05-07T03:46:59;16.70;99.90
16114;DHT22;8161;-33.910;151.156;2023-05-07T03:49:26;16.50;99.90
16114;DHT22;8161;-33.910;151.156;2023-05-07T03:51:57;17.10;99.90
16114;DHT22;8161;-33.910;151.156;2023-05-07T03:54:24;17.30;99.90
16114;DHT22;8161;-33.910;151.156;2023-05-07T03:56:51;17.10;99.90
16114;DHT22;8161;-33.910;151.156;2023-05-07T03:59:18;16.80;99.90
16114;DHT22;8161;-33.910;151.156;2023-05-07T04:01:46;17.10;99.90
16114;DHT22;8161;-33.910;151.156;2023-05-07T04:04:13;16.80;99.90
16114;DHT22;8161;-33.910;151.156;2023-05-07T04:06:40;17.40;99.90
16114;DHT22;8161;-33.910;151.156;2023-05-07T04:09:11;17.50;99.90
16114;DHT22;8161;-33.910;151.156;2023-05-07T04:11:38;17.90;99.90
16114;DHT22;8161;-33.910;151.156;2023-05-07T04:14:06;17.80;99.90
16114;DHT22;8161;-33.910;151.156;2023-05-07T04:16:35;17.10;99.90
16114;DHT22;8161;-33.910;151.156;2023-05-07T04:19:02;16.70;99.90
16114;DHT22;8161;-33.910;151.156;2023-05-07T04:21:29;17.50;99.90
16114;DHT22;8161;-33.910;151.156;2023-05-07T04:23:57;16.90;99.90
16114;DHT22;8161;-33.910;151.156;2023-05-07T04:26:24;17.20;99.90
16114;DHT22;8161;-33.910;151.156;2023-05-07T04:28:51;17.30;99.90
16114;DHT22;8161;-33.910;151.156;2023-05-07T04:31:19;17.40;99.90
16114;DHT22;8161;-33.910;151.156;2023-05-07T04:33:46;17.70;99.90
16114;DHT22;8161;-33.910;151.156;2023-05-07T04:36:13;17.20;99.90
16114;DHT22;8161;-33.910;151.156;2023-05-07T04:38:40;17.50;99.90
16114;DHT22;8161;-33.910;151.156;2023-05-07T04:41:09;17.50;99.90
16114;DHT22;8161;-33.910;151.156;2023-05-07T04:46:04;17.10;99.90
16114;DHT22;8161;-33.910;151.156;2023-05-07T04:48:31;17.20;99.90
16114;DHT22;8161;-33.910;151.156;2023-05-07T04:50:58;17.10;99.90
16114;DHT22;8161;-33.910;151.156;2023-05-07T04:53:26;17.20;99.90
16114;DHT22;8161;-33.910;151.156;2023-05-07T04:55:56;17.30;99.90
16114;DHT22;8161;-33.910;151.156;2023-05-07T04:58:23;17.70;99.90
16114;DHT22;8161;-33.910;151.156;2023-05-07T05:00:51;17.20;99.90
16114;DHT22;8161;-33.910;151.156;2023-05-07T05:03:18;17.50;99.90
16114;DHT22;8161;-33.910;151.156;2023-05-07T05:08:13;17.70;99.90
16114;DHT22;8161;-33.910;151.156;2023-05-07T05:10:40;17.00;99.90
16114;DHT22;8161;-33.910;151.156;2023-05-07T05:13:09;17.30;99.90
16114;DHT22;8161;-33.910;151.156;2023-05-07T05:15:39;16.80;99.90
16114;DHT22;8161;-33.910;151.156;2023-05-07T05:18:06;16.60;99.90
16114;DHT22;8161;-33.910;151.156;2023-05-07T05:20:33;16.50;99.90
16114;DHT22;8161;-33.910;151.156;2023-05-07T05:23:01;16.50;99.90
16114;DHT22;8161;-33.910;151.156;2023-05-07T05:25:28;16.10;99.90
16114;DHT22;8161;-33.910;151.156;2023-05-07T05:27:58;16.60;99.90
16114;DHT22;8161;-33.910;151.156;2023-05-07T05:32:52;16.30;99.90
16114;DHT22;8161;-33.910;151.156;2023-05-07T05:35:20;16.80;99.90
16114;DHT22;8161;-33.910;151.156;2023-05-07T05:37:50;17.10;99.90
16114;DHT22;8161;-33.910;151.156;2023-05-07T05:40:17;16.60;99.90
16114;DHT22;8161;-33.910;151.156;2023-05-07T05:42:44;16.70;99.90
16114;DHT22;8161;-33.910;151.156;2023-05-07T05:45:11;16.80;99.90
16114;DHT22;8161;-33.910;151.156;2023-05-07T05:47:39;17.40;99.90
16114;DHT22;8161;-33.910;151.156;2023-05-07T05:50:07;17.00;99.90
16114;DHT22;8161;-33.910;151.156;2023-05-07T05:52:34;17.10;99.90
16114;DHT22;8161;-33.910;151.156;2023-05-07T05:55:01;16.90;99.90
16114;DHT22;8161;-33.910;151.156;2023-05-07T05:57:29;16.70;99.90
16114;DHT22;8161;-33.910;151.156;2023-05-07T05:59:56;17.10;99.90
16114;DHT22;8161;-33.910;151.156;2023-05-07T06:02:23;16.30;99.90
16114;DHT22;8161;-33.910;151.156;2023-05-07T06:04:51;16.80;99.90
16114;DHT22;8161;-33.910;151.156;2023-05-07T06:07:18;16.60;99.90
16114;DHT22;8161;-33.910;151.156;2023-05-07T06:09:45;15.90;99.90
16114;DHT22;8161;-33.910;151.156;2023-05-07T06:12:13;15.90;99.90
16114;DHT22;8161;-33.910;151.156;2023-05-07T06:14:42;15.90;99.90
16114;DHT22;8161;-33.910;151.156;2023-05-07T06:17:09;15.60;99.90
16114;DHT22;8161;-33.910;151.156;2023-05-07T06:22:03;15.70;99.90
16114;DHT22;8161;-33.910;151.156;2023-05-07T06:24:31;15.80;99.90
16114;DHT22;8161;-33.910;151.156;2023-05-07T06:26:58;15.60;99.90
16114;DHT22;8161;-33.910;151.156;2023-05-07T06:29:25;15.50;99.90
16114;DHT22;8161;-33.910;151.156;2023-05-07T06:31:55;15.20;99.90
16114;DHT22;8161;-33.910;151.156;2023-05-07T06:34:23;15.30;99.90
16114;DHT22;8161;-33.910;151.156;2023-05-07T06:36:50;15.30;99.90
16114;DHT22;8161;-33.910;151.156;2023-05-07T06:39:17;15.00;99.90
16114;DHT22;8161;-33.910;151.156;2023-05-07T06:41:44;15.10;99.90
16114;DHT22;8161;-33.910;151.156;2023-05-07T06:44:15;15.10;99.90
16114;DHT22;8161;-33.910;151.156;2023-05-07T06:46:42;15.70;99.90
16114;DHT22;8161;-33.910;151.156;2023-05-07T06:49:09;15.00;99.90
16114;DHT22;8161;-33.910;151.156;2023-05-07T06:54:07;15.20;99.90
16114;DHT22;8161;-33.910;151.156;2023-05-07T06:56:34;15.20;99.90
16114;DHT22;8161;-33.910;151.156;2023-05-07T06:59:03;15.10;99.90
16114;DHT22;8161;-33.910;151.156;2023-05-07T07:01:33;14.40;99.90
16114;DHT22;8161;-33.910;151.156;2023-05-07T07:04:00;14.70;99.90
16114;DHT22;8161;-33.910;151.156;2023-05-07T07:06:27;14.30;99.90
16114;DHT22;8161;-33.910;151.156;2023-05-07T07:08:56;14.50;99.90
16114;DHT22;8161;-33.910;151.156;2023-05-07T07:16:17;13.90;99.90
16114;DHT22;8161;-33.910;151.156;2023-05-07T07:18:44;14.30;99.90
16114;DHT22;8161;-33.910;151.156;2023-05-07T07:21:12;14.20;99.90
16114;DHT22;8161;-33.910;151.156;2023-05-07T07:26:06;13.70;99.90
16114;DHT22;8161;-33.910;151.156;2023-05-07T07:28:34;14.40;99.90
16114;DHT22;8161;-33.910;151.156;2023-05-07T07:31:04;14.00;99.90
16114;DHT22;8161;-33.910;151.156;2023-05-07T07:33:31;14.10;99.90
16114;DHT22;8161;-33.910;151.156;2023-05-07T07:36:01;14.00;99.90
16114;DHT22;8161;-33.910;151.156;2023-05-07T07:40:56;13.60;99.90
16114;DHT22;8161;-33.910;151.156;2023-05-07T07:43:23;13.50;99.90
16114;DHT22;8161;-33.910;151.156;2023-05-07T07:45:50;13.60;99.90
16114;DHT22;8161;-33.910;151.156;2023-05-07T07:50:48;13.90;99.90
16114;DHT22;8161;-33.910;151.156;2023-05-07T07:53:15;13.20;99.90
16114;DHT22;8161;-33.910;151.156;2023-05-07T07:55:42;13.30;99.90
16114;DHT22;8161;-33.910;151.156;2023-05-07T07:58:10;13.40;99.90
16114;DHT22;8161;-33.910;151.156;2023-05-07T08:00:37;13.20;99.90
16114;DHT22;8161;-33.910;151.156;2023-05-07T08:03:04;13.60;99.90
16114;DHT22;8161;-33.910;151.156;2023-05-07T08:05:33;13.70;99.90
16114;DHT22;8161;-33.910;151.156;2023-05-07T08:08:00;13.70;99.90
16114;DHT22;8161;-33.910;151.156;2023-05-07T08:10:27;13.30;99.90
16114;DHT22;8161;-33.910;151.156;2023-05-07T08:12:54;13.30;99.90
16114;DHT22;8161;-33.910;151.156;2023-05-07T08:15:24;12.80;99.90
16114;DHT22;8161;-33.910;151.156;2023-05-07T08:17:52;13.40;99.90
16114;DHT22;8161;-33.910;151.156;2023-05-07T08:20:19;13.10;99.90
16114;DHT22;8161;-33.910;151.156;2023-05-07T08:22:46;12.80;99.90
16114;DHT22;8161;-33.910;151.156;2023-05-07T08:25:14;12.90;99.90
16114;DHT22;8161;-33.910;151.156;2023-05-07T08:27:41;12.90;99.90
16114;DHT22;8161;-33.910;151.156;2023-05-07T08:30:09;13.50;99.90
16114;DHT22;8161;-33.910;151.156;2023-05-07T08:37:30;13.00;99.90
16114;DHT22;8161;-33.910;151.156;2023-05-07T08:39:57;13.10;99.90
16114;DHT22;8161;-33.910;151.156;2023-05-07T08:42:25;13.40;99.90
16114;DHT22;8161;-33.910;151.156;2023-05-07T08:44:57;12.90;99.90
16114;DHT22;8161;-33.910;151.156;2023-05-07T08:47:38;13.10;99.90
16114;DHT22;8161;-33.910;151.156;2023-05-07T08:52:35;12.80;99.90
16114;DHT22;8161;-33.910;151.156;2023-05-07T08:55:03;13.00;99.90
16114;DHT22;8161;-33.910;151.156;2023-05-07T08:59:58;13.00;99.90
16114;DHT22;8161;-33.910;151.156;2023-05-07T09:02:25;13.40;99.90
16114;DHT22;8161;-33.910;151.156;2023-05-07T09:04:52;12.80;99.90
16114;DHT22;8161;-33.910;151.156;2023-05-07T09:07:20;12.70;99.90
16114;DHT22;8161;-33.910;151.156;2023-05-07T09:09:48;12.90;99.90
16114;DHT22;8161;-33.910;151.156;2023-05-07T09:14:42;13.20;99.90
16114;DHT22;8161;-33.910;151.156;2023-05-07T09:17:10;12.90;99.90
16114;DHT22;8161;-33.910;151.156;2023-05-07T09:19:37;13.30;99.90
16114;DHT22;8161;-33.910;151.156;2023-05-07T09:24:37;13.00;99.90
16114;DHT22;8161;-33.910;151.156;2023-05-07T09:29:32;12.50;99.90
16114;DHT22;8161;-33.910;151.156;2023-05-07T09:32:06;12.60;99.90
16114;DHT22;8161;-33.910;151.156;2023-05-07T09:34:34;13.00;99.90
16114;DHT22;8161;-33.910;151.156;2023-05-07T09:39:43;13.00;99.90
16114;DHT22;8161;-33.910;151.156;2023-05-07T09:42:12;12.60;99.90
16114;DHT22;8161;-33.910;151.156;2023-05-07T09:44:43;12.40;99.90
16114;DHT22;8161;-33.910;151.156;2023-05-07T09:47:12;12.90;99.90
16114;DHT22;8161;-33.910;151.156;2023-05-07T09:49:47;13.00;99.90
16114;DHT22;8161;-33.910;151.156;2023-05-07T09:52:15;13.00;99.90
16114;DHT22;8161;-33.910;151.156;2023-05-07T09:54:43;13.10;99.90
16114;DHT22;8161;-33.910;151.156;2023-05-07T09:57:15;12.10;99.90
16114;DHT22;8161;-33.910;151.156;2023-05-07T10:02:11;12.80;99.90
16114;DHT22;8161;-33.910;151.156;2023-05-07T10:04:42;12.50;99.90
16114;DHT22;8161;-33.910;151.156;2023-05-07T10:12:06;12.40;99.90
16114;DHT22;8161;-33.910;151.156;2023-05-07T10:14:34;12.70;99.90
16114;DHT22;8161;-33.910;151.156;2023-05-07T10:17:02;12.30;99.90
16114;DHT22;8161;-33.910;151.156;2023-05-07T10:19:30;12.00;99.90
16114;DHT22;8161;-33.910;151.156;2023-05-07T10:22:03;12.70;99.90
16114;DHT22;8161;-33.910;151.156;2023-05-07T10:24:35;12.20;99.90
16114;DHT22;8161;-33.910;151.156;2023-05-07T10:27:12;12.70;99.90
16114;DHT22;8161;-33.910;151.156;2023-05-07T10:30:07;12.40;99.90
16114;DHT22;8161;-33.910;151.156;2023-05-07T10:32:50;11.90;99.90
16114;DHT22;8161;-33.910;151.156;2023-05-07T10:35:24;12.50;99.90
16114;DHT22;8161;-33.910;151.156;2023-05-07T10:37:55;12.10;99.90
16114;DHT22;8161;-33.910;151.156;2023-05-07T10:40:22;12.50;99.90
16114;DHT22;8161;-33.910;151.156;2023-05-07T10:43:04;12.10;99.90
16114;DHT22;8161;-33.910;151.156;2023-05-07T10:45:33;12.00;99.90
16114;DHT22;8161;-33.910;151.156;2023-05-07T10:48:18;12.00;99.90
16114;DHT22;8161;-33.910;151.156;2023-05-07T10:50:46;12.10;99.90
16114;DHT22;8161;-33.910;151.156;2023-05-07T10:58:27;12.20;99.90
16114;DHT22;8161;-33.910;151.156;2023-05-07T11:01:00;11.80;99.90
16114;DHT22;8161;-33.910;151.156;2023-05-07T11:03:28;12.40;99.90
16114;DHT22;8161;-33.910;151.156;2023-05-07T11:06:10;11.80;99.90
16114;DHT22;8161;-33.910;151.156;2023-05-07T11:08:54;11.80;99.90
16114;DHT22;8161;-33.910;151.156;2023-05-07T11:17:12;11.80;99.90
16114;DHT22;8161;-33.910;151.156;2023-05-07T11:19:53;11.70;99.90
16114;DHT22;8161;-33.910;151.156;2023-05-07T11:27:31;11.20;99.90
16114;DHT22;8161;-33.910;151.156;2023-05-07T11:29:59;11.00;99.90
16114;DHT22;8161;-33.910;151.156;2023-05-07T11:32:29;11.30;99.90
16114;DHT22;8161;-33.910;151.156;2023-05-07T11:34:58;11.20;99.90
16114;DHT22;8161;-33.910;151.156;2023-05-07T11:37:27;11.20;99.90
16114;DHT22;8161;-33.910;151.156;2023-05-07T11:40:07;10.90;99.90
16114;DHT22;8161;-33.910;151.156;2023-05-07T11:45:09;10.90;99.90
16114;DHT22;8161;-33.910;151.156;2023-05-07T11:50:06;10.40;99.90
16114;DHT22;8161;-33.910;151.156;2023-05-07T11:52:34;10.10;99.90
16114;DHT22;8161;-33.910;151.156;2023-05-07T11:55:02;10.10;99.90
16114;DHT22;8161;-33.910;151.156;2023-05-07T11:57:32;10.40;99.90
16114;DHT22;8161;-33.910;151.156;2023-05-07T12:00:01;9.80;99.90
16114;DHT22;8161;-33.910;151.156;2023-05-07T12:02:30;10.00;99.90
16114;DHT22;8161;-33.910;151.156;2023-05-07T12:07:25;10.00;99.90
16114;DHT22;8161;-33.910;151.156;2023-05-07T12:09:53;9.90;99.90
16114;DHT22;8161;-33.910;151.156;2023-05-07T12:14:48;9.60;99.90
16114;DHT22;8161;-33.910;151.156;2023-05-07T12:17:16;9.40;99.90
16114;DHT22;8161;-33.910;151.156;2023-05-07T12:19:45;9.60;99.90
16114;DHT22;8161;-33.910;151.156;2023-05-07T12:27:17;9.60;99.90
16114;DHT22;8161;-33.910;151.156;2023-05-07T12:29:49;9.20;99.90
16114;DHT22;8161;-33.910;151.156;2023-05-07T12:32:18;9.40;99.90
16114;DHT22;8161;-33.910;151.156;2023-05-07T12:37:13;9.40;99.90
16114;DHT22;8161;-33.910;151.156;2023-05-07T12:45:12;9.10;99.90
16114;DHT22;8161;-33.910;151.156;2023-05-07T12:50:07;9.90;99.90
16114;DHT22;8161;-33.910;151.156;2023-05-07T12:52:35;9.80;99.90
16114;DHT22;8161;-33.910;151.156;2023-05-07T12:57:45;9.30;99.90
16114;DHT22;8161;-33.910;151.156;2023-05-07T13:00:16;9.30;99.90
16114;DHT22;8161;-33.910;151.156;2023-05-07T13:02:44;9.30;99.90
16114;DHT22;8161;-33.910;151.156;2023-05-07T13:05:14;9.70;99.90
16114;DHT22;8161;-33.910;151.156;2023-05-07T13:07:51;9.50;99.90
16114;DHT22;8161;-33.910;151.156;2023-05-07T13:10:19;9.50;99.90
16114;DHT22;8161;-33.910;151.156;2023-05-07T13:12:46;9.80;99.90
16114;DHT22;8161;-33.910;151.156;2023-05-07T13:15:13;10.10;99.90
16114;DHT22;8161;-33.910;151.156;2023-05-07T13:17:41;9.80;99.90
16114;DHT22;8161;-33.910;151.156;2023-05-07T13:20:10;9.50;99.90
16114;DHT22;8161;-33.910;151.156;2023-05-07T13:22:38;9.60;99.90
16114;DHT22;8161;-33.910;151.156;2023-05-07T13:25:06;9.80;99.90
16114;DHT22;8161;-33.910;151.156;2023-05-07T13:27:34;10.10;99.90
16114;DHT22;8161;-33.910;151.156;2023-05-07T13:30:07;10.10;99.90
16114;DHT22;8161;-33.910;151.156;2023-05-07T13:32:34;9.80;99.90
16114;DHT22;8161;-33.910;151.156;2023-05-07T13:35:06;9.70;99.90
16114;DHT22;8161;-33.910;151.156;2023-05-07T13:37:33;9.70;99.90
16114;DHT22;8161;-33.910;151.156;2023-05-07T13:40:03;9.90;99.90
16114;DHT22;8161;-33.910;151.156;2023-05-07T13:42:31;9.50;99.90
16114;DHT22;8161;-33.910;151.156;2023-05-07T13:47:25;9.90;99.90
16114;DHT22;8161;-33.910;151.156;2023-05-07T13:49:53;9.50;99.90
16114;DHT22;8161;-33.910;151.156;2023-05-07T13:52:20;10.10;99.90
16114;DHT22;8161;-33.910;151.156;2023-05-07T13:54:47;9.90;99.90
16114;DHT22;8161;-33.910;151.156;2023-05-07T13:57:14;10.10;99.90
16114;DHT22;8161;-33.910;151.156;2023-05-07T13:59:42;9.70;99.90
16114;DHT22;8161;-33.910;151.156;2023-05-07T14:02:09;10.00;99.90
16114;DHT22;8161;-33.910;151.156;2023-05-07T14:04:37;9.70;99.90
16114;DHT22;8161;-33.910;151.156;2023-05-07T14:07:05;9.70;99.90
16114;DHT22;8161;-33.910;151.156;2023-05-07T14:09:32;10.30;99.90
16114;DHT22;8161;-33.910;151.156;2023-05-07T14:11:59;10.00;99.90
16114;DHT22;8161;-33.910;151.156;2023-05-07T14:14:28;10.10;99.90
16114;DHT22;8161;-33.910;151.156;2023-05-07T14:16:55;10.40;99.90
16114;DHT22;8161;-33.910;151.156;2023-05-07T14:19:22;9.70;99.90
16114;DHT22;8161;-33.910;151.156;2023-05-07T14:24:17;10.50;99.90
16114;DHT22;8161;-33.910;151.156;2023-05-07T14:26:44;10.50;99.90
16114;DHT22;8161;-33.910;151.156;2023-05-07T14:29:11;10.30;99.90
16114;DHT22;8161;-33.910;151.156;2023-05-07T14:31:41;10.40;99.90
16114;DHT22;8161;-33.910;151.156;2023-05-07T14:34:09;10.20;99.90
16114;DHT22;8161;-33.910;151.156;2023-05-07T14:39:04;10.80;99.90
16114;DHT22;8161;-33.910;151.156;2023-05-07T14:41:31;10.50;99.90
16114;DHT22;8161;-33.910;151.156;2023-05-07T14:43:59;10.50;99.90
16114;DHT22;8161;-33.910;151.156;2023-05-07T14:46:26;11.00;99.90
16114;DHT22;8161;-33.910;151.156;2023-05-07T14:48:54;10.90;99.90
16114;DHT22;8161;-33.910;151.156;2023-05-07T14:51:21;10.60;99.90
16114;DHT22;8161;-33.910;151.156;2023-05-07T14:53:49;11.00;99.90
16114;DHT22;8161;-33.910;151.156;2023-05-07T14:56:20;11.00;99.90
16114;DHT22;8161;-33.910;151.156;2023-05-07T14:58:51;10.90;99.90
16114;DHT22;8161;-33.910;151.156;2023-05-07T15:01:19;11.40;99.90
16114;DHT22;8161;-33.910;151.156;2023-05-07T15:03:47;11.40;99.90
16114;DHT22;8161;-33.910;151.156;2023-05-07T15:06:14;11.40;99.90
16114;DHT22;8161;-33.910;151.156;2023-05-07T15:08:41;11.20;99.90
16114;DHT22;8161;-33.910;151.156;2023-05-07T15:11:08;11.10;99.90
16114;DHT22;8161;-33.910;151.156;2023-05-07T15:13:36;11.10;99.90
16114;DHT22;8161;-33.910;151.156;2023-05-07T15:16:03;11.40;99.90
16114;DHT22;8161;-33.910;151.156;2023-05-07T15:18:33;11.50;99.90
16114;DHT22;8161;-33.910;151.156;2023-05-07T15:21:00;11.20;99.90
16114;DHT22;8161;-33.910;151.156;2023-05-07T15:23:30;11.70;99.90
16114;DHT22;8161;-33.910;151.156;2023-05-07T15:25:58;11.80;99.90
16114;DHT22;8161;-33.910;151.156;2023-05-07T15:28:25;11.60;99.90
16114;DHT22;8161;-33.910;151.156;2023-05-07T15:30:55;11.80;99.90
16114;DHT22;8161;-33.910;151.156;2023-05-07T15:33:23;12.00;99.90
16114;DHT22;8161;-33.910;151.156;2023-05-07T15:35:50;11.80;99.90
16114;DHT22;8161;-33.910;151.156;2023-05-07T15:38:18;12.00;99.90
16114;DHT22;8161;-33.910;151.156;2023-05-07T15:40:46;11.60;99.90
16114;DHT22;8161;-33.910;151.156;2023-05-07T15:43:13;11.90;99.90
16114;DHT22;8161;-33.910;151.156;2023-05-07T15:45:41;12.10;99.90
16114;DHT22;8161;-33.910;151.156;2023-05-07T15:53:04;11.50;99.90
16114;DHT22;8161;-33.910;151.156;2023-05-07T15:55:32;12.00;99.90
16114;DHT22;8161;-33.910;151.156;2023-05-07T15:57:59;11.70;99.90
16114;DHT22;8161;-33.910;151.156;2023-05-07T16:00:27;11.60;99.90
16114;DHT22;8161;-33.910;151.156;2023-05-07T16:02:54;11.70;99.90
16114;DHT22;8161;-33.910;151.156;2023-05-07T16:05:22;12.30;99.90
16114;DHT22;8161;-33.910;151.156;2023-05-07T16:10:16;12.20;99.90
16114;DHT22;8161;-33.910;151.156;2023-05-07T16:15:14;12.20;99.90
16114;DHT22;8161;-33.910;151.156;2023-05-07T16:17:41;12.00;99.90
16114;DHT22;8161;-33.910;151.156;2023-05-07T16:20:11;11.90;99.90
16114;DHT22;8161;-33.910;151.156;2023-05-07T16:22:40;12.10;99.90
16114;DHT22;8161;-33.910;151.156;2023-05-07T16:25:08;12.20;99.90
16114;DHT22;8161;-33.910;151.156;2023-05-07T16:30:04;12.20;99.90
16114;DHT22;8161;-33.910;151.156;2023-05-07T16:32:32;12.30;99.90
16114;DHT22;8161;-33.910;151.156;2023-05-07T16:35:00;12.30;99.90
16114;DHT22;8161;-33.910;151.156;2023-05-07T16:37:31;12.30;99.90
16114;DHT22;8161;-33.910;151.156;2023-05-07T16:40:00;11.90;99.90
16114;DHT22;8161;-33.910;151.156;2023-05-07T16:44:58;12.10;99.90
16114;DHT22;8161;-33.910;151.156;2023-05-07T16:47:26;12.10;99.90
16114;DHT22;8161;-33.910;151.156;2023-05-07T16:49:54;11.90;99.90
16114;DHT22;8161;-33.910;151.156;2023-05-07T16:52:21;12.40;99.90
16114;DHT22;8161;-33.910;151.156;2023-05-07T16:54:49;12.10;99.90
16114;DHT22;8161;-33.910;151.156;2023-05-07T16:57:16;12.10;99.90
16114;DHT22;8161;-33.910;151.156;2023-05-07T16:59:44;12.40;99.90
16114;DHT22;8161;-33.910;151.156;2023-05-07T17:02:11;12.50;99.90
16114;DHT22;8161;-33.910;151.156;2023-05-07T17:04:38;12.30;99.90
16114;DHT22;8161;-33.910;151.156;2023-05-07T17:09:33;12.00;99.90
16114;DHT22;8161;-33.910;151.156;2023-05-07T17:12:00;12.00;99.90
16114;DHT22;8161;-33.910;151.156;2023-05-07T17:14:28;12.10;99.90
16114;DHT22;8161;-33.910;151.156;2023-05-07T17:16:55;12.10;99.90
16114;DHT22;8161;-33.910;151.156;2023-05-07T17:21:50;12.60;99.90
16114;DHT22;8161;-33.910;151.156;2023-05-07T17:24:17;12.50;99.90
16114;DHT22;8161;-33.910;151.156;2023-05-07T17:26:46;12.00;99.90
16114;DHT22;8161;-33.910;151.156;2023-05-07T17:29:13;12.20;99.90